createdAt,value
2019-04-03T00:02:09.874Z,6.42
2019-04-03T00:04:40.848Z,6.75
2019-04-03T00:07:10.279Z,6.95
2019-04-03T00:09:40.165Z,7.17
2019-04-03T00:12:10.517Z,6.90
2019-04-03T00:14:42.425Z,6.30
2019-04-03T00:17:11.497Z,6.00
2019-04-03T00:19:41.328Z,5.55
2019-04-03T00:22:10.931Z,6.12
2019-04-03T00:24:42.148Z,6.62
2019-04-03T00:27:11.680Z,5.87
2019-04-03T00:29:41.694Z,5.65
2019-04-03T00:32:11.233Z,5.42
2019-04-03T00:34:40.757Z,5.28
2019-04-03T00:37:10.343Z,5.95
2019-04-03T00:39:45.091Z,5.03
2019-04-03T00:42:14.534Z,5.60
2019-04-03T00:44:44.079Z,5.20
2019-04-03T00:47:13.608Z,5.80
2019-04-03T00:49:43.109Z,5.33
2019-04-03T00:52:12.490Z,5.00
2019-04-03T00:54:42.114Z,5.25
2019-04-03T00:57:12.794Z,5.90
2019-04-03T00:59:42.325Z,5.17
2019-04-03T01:02:11.736Z,5.10
2019-04-03T01:04:41.409Z,5.20
2019-04-03T01:07:12.468Z,5.80
2019-04-03T01:09:41.838Z,5.65
2019-04-03T01:12:13.074Z,5.80
2019-04-03T01:14:42.691Z,5.45
2019-04-03T01:17:12.863Z,5.17
2019-04-03T01:19:42.362Z,6.22
2019-04-03T01:22:11.867Z,6.00
2019-04-03T01:24:41.473Z,4.90
2019-04-03T01:27:12.513Z,5.70
2019-04-03T01:29:42.909Z,5.72
2019-04-03T01:32:15.393Z,5.55
2019-04-03T01:34:43.894Z,5.95
2019-04-03T01:37:14.893Z,5.83
2019-04-03T01:39:44.545Z,5.78
2019-04-03T01:42:14.820Z,6.35
2019-04-03T01:44:44.276Z,6.75
2019-04-03T01:47:14.180Z,6.20
2019-04-03T01:49:43.790Z,5.30
2019-04-03T01:52:15.227Z,6.58
2019-04-03T01:54:45.894Z,5.70
2019-04-03T01:57:15.476Z,5.75
2019-04-03T01:59:45.081Z,5.75
2019-04-03T02:02:14.683Z,6.40
2019-04-03T02:04:44.602Z,6.85
2019-04-03T02:07:16.787Z,5.95
2019-04-03T02:09:47.809Z,6.10
2019-04-03T02:12:19.735Z,6.20
2019-04-03T02:14:51.568Z,6.58
2019-04-03T02:17:21.839Z,6.10
2019-04-03T02:19:55.938Z,5.90
2019-04-03T02:22:25.997Z,5.55
2019-04-03T02:24:55.587Z,6.95
2019-04-03T02:27:25.690Z,6.15
2019-04-03T02:29:55.315Z,5.42
2019-04-03T02:32:25.211Z,5.85
2019-04-03T02:34:54.729Z,5.45
2019-04-03T02:37:24.235Z,6.50
2019-04-03T02:39:59.045Z,6.17
2019-04-03T02:42:27.540Z,5.83
2019-04-03T02:44:57.303Z,7.20
2019-04-03T02:47:26.860Z,6.58
2019-04-03T02:49:57.919Z,6.25
2019-04-03T02:52:27.718Z,7.00
2019-04-03T02:54:58.752Z,6.45
2019-04-03T02:57:29.244Z,6.35
2019-04-03T03:00:00.270Z,7.17
2019-04-03T03:02:30.202Z,7.50
2019-04-03T03:05:00.141Z,6.90
2019-04-03T03:07:29.840Z,6.50
2019-04-03T03:10:00.489Z,7.03
2019-04-03T03:12:31.039Z,6.55
2019-04-03T03:15:02.037Z,6.65
2019-04-03T03:17:31.680Z,6.58
2019-04-03T03:20:06.934Z,6.40
2019-04-03T03:22:37.998Z,7.10
2019-04-03T03:25:08.246Z,6.45
2019-04-03T03:27:41.689Z,7.05
2019-04-03T03:30:31.558Z,8.65
2019-04-03T03:32:42.893Z,7.10
2019-04-03T03:35:16.670Z,7.42
2019-04-03T03:37:45.506Z,7.87
2019-04-03T03:40:16.519Z,8.60
2019-04-03T03:42:47.013Z,7.87
2019-04-03T03:45:20.609Z,7.85
2019-04-03T03:47:51.084Z,7.25
2019-04-03T03:50:25.982Z,7.97
2019-04-03T03:52:57.638Z,8.45
2019-04-03T03:55:29.774Z,7.37
2019-04-03T03:58:01.330Z,6.90
2019-04-03T04:00:31.329Z,6.65
2019-04-03T04:03:00.949Z,7.75
2019-04-03T04:05:32.183Z,8.23
2019-04-03T04:08:01.688Z,7.75
2019-04-03T04:10:36.503Z,6.80
2019-04-03T04:13:06.929Z,7.50
2019-04-03T04:15:36.651Z,8.20
2019-04-03T04:18:06.535Z,8.60
2019-04-03T04:20:38.116Z,7.40
2019-04-03T04:23:08.429Z,7.05
2019-04-03T04:25:38.159Z,7.95
2019-04-03T04:28:09.166Z,9.35
2019-04-03T04:30:38.694Z,8.08
2019-04-03T04:33:08.836Z,7.75
2019-04-03T04:35:39.341Z,7.97
2019-04-03T04:38:10.864Z,8.68
2019-04-03T04:40:40.682Z,7.72
2019-04-03T04:43:10.125Z,8.65
2019-04-03T04:45:42.705Z,9.43
2019-04-03T04:48:12.557Z,9.73
2019-04-03T04:50:42.633Z,8.60
2019-04-03T04:53:12.219Z,7.70
2019-04-03T04:55:41.723Z,8.00
2019-04-03T04:58:11.638Z,8.10
2019-04-03T05:00:41.848Z,7.80
2019-04-03T05:03:11.474Z,7.72
2019-04-03T05:05:43.776Z,8.25
2019-04-03T05:08:13.348Z,9.18
2019-04-03T05:10:43.264Z,7.90
2019-04-03T05:13:13.863Z,8.10
2019-04-03T05:15:44.147Z,8.00
2019-04-03T05:18:14.247Z,8.10
2019-04-03T05:20:43.694Z,7.45
2019-04-03T05:23:13.234Z,8.28
2019-04-03T05:25:43.203Z,7.45
2019-04-03T05:28:12.857Z,8.93
2019-04-03T05:30:43.089Z,8.18
2019-04-03T05:33:13.299Z,8.35
2019-04-03T05:35:45.614Z,8.30
2019-04-03T05:38:15.747Z,7.92
2019-04-03T05:40:45.200Z,7.60
2019-04-03T05:43:16.103Z,8.40
2019-04-03T05:45:46.810Z,7.55
2019-04-03T05:48:17.658Z,7.75
2019-04-03T05:50:47.611Z,8.55
2019-04-03T05:53:20.241Z,7.70
2019-04-03T05:55:52.993Z,7.95
2019-04-03T05:58:22.590Z,7.80
2019-04-03T06:01:03.511Z,8.13
2019-04-03T06:03:37.664Z,8.45
2019-04-03T06:05:58.076Z,9.50
2019-04-03T06:08:27.161Z,10.25
2019-04-03T06:10:56.651Z,8.53
2019-04-03T06:13:26.460Z,8.30
2019-04-03T06:15:57.199Z,8.05
2019-04-03T06:18:31.053Z,7.40
2019-04-03T06:21:08.421Z,8.10
2019-04-03T06:23:39.105Z,7.75
2019-04-03T06:26:10.164Z,8.68
2019-04-03T06:28:42.348Z,8.40
2019-04-03T06:31:11.049Z,7.45
2019-04-03T06:33:40.634Z,7.65
2019-04-03T06:36:11.790Z,8.05
2019-04-03T06:38:43.339Z,7.40
2019-04-03T06:41:14.460Z,7.20
2019-04-03T06:43:45.395Z,7.45
2019-04-03T06:46:16.438Z,8.43
2019-04-03T06:48:47.311Z,8.43
2019-04-03T06:51:19.441Z,7.95
2019-04-03T06:53:55.290Z,7.55
2019-04-03T06:56:23.728Z,7.53
2019-04-03T06:58:53.346Z,8.70
2019-04-03T07:01:22.766Z,8.83
2019-04-03T07:03:52.395Z,6.80
2019-04-03T07:06:21.959Z,8.65
2019-04-03T07:08:51.474Z,8.03
2019-04-03T07:11:23.725Z,8.40
2019-04-03T07:13:53.908Z,8.55
2019-04-03T07:16:23.187Z,8.00
2019-04-03T07:18:53.023Z,8.10
2019-04-03T07:21:23.483Z,8.35
2019-04-03T07:23:56.307Z,9.00
2019-04-03T07:26:25.710Z,8.50
2019-04-03T07:28:55.130Z,7.30
2019-04-03T07:31:26.664Z,7.12
2019-04-03T07:33:58.418Z,9.25
2019-04-03T07:36:29.165Z,7.20
2019-04-03T07:38:59.070Z,7.55
2019-04-03T07:41:28.693Z,8.25
2019-04-03T07:43:59.207Z,8.23
2019-04-03T07:46:33.947Z,8.15
2019-04-03T07:49:06.815Z,7.97
2019-04-03T07:51:36.734Z,8.38
2019-04-03T07:54:07.686Z,8.58
2019-04-03T07:56:38.726Z,8.25
2019-04-03T07:59:08.350Z,8.00
2019-04-03T08:01:38.838Z,7.85
2019-04-03T08:04:11.974Z,9.20
2019-04-03T08:06:44.360Z,8.68
2019-04-03T08:09:13.845Z,7.45
2019-04-03T08:11:44.435Z,8.63
2019-04-03T08:14:13.990Z,7.90
2019-04-03T08:16:43.622Z,8.25
2019-04-03T08:19:13.227Z,9.73
2019-04-03T08:21:42.813Z,8.93
2019-04-03T08:24:14.214Z,10.75
2019-04-03T08:26:43.612Z,9.85
2019-04-03T08:29:13.255Z,10.45
2019-04-03T08:31:46.079Z,10.93
2019-04-03T08:34:17.738Z,11.18
2019-04-03T08:36:46.756Z,11.43
2019-04-03T08:39:17.953Z,11.65
2019-04-03T08:41:51.145Z,10.63
2019-04-03T08:44:26.928Z,10.08
2019-04-03T08:46:56.876Z,11.35
2019-04-03T08:49:28.302Z,10.68
2019-04-03T08:52:03.886Z,12.68
2019-04-03T08:54:33.841Z,10.70
2019-04-03T08:57:06.995Z,11.20
2019-04-03T08:59:36.817Z,11.05
2019-04-03T09:02:10.602Z,8.78
2019-04-03T09:04:40.696Z,5.40
2019-04-03T09:07:11.441Z,4.35
2019-04-03T09:09:40.943Z,3.80
2019-04-03T09:12:10.466Z,4.20
2019-04-03T09:14:39.931Z,4.10
2019-04-03T09:17:09.737Z,3.95
2019-04-03T09:19:43.763Z,4.33
2019-04-03T09:22:14.896Z,5.30
2019-04-03T09:24:44.299Z,5.45
2019-04-03T09:27:13.927Z,4.78
2019-04-03T09:29:45.887Z,5.25
2019-04-03T09:32:17.363Z,5.90
2019-04-03T09:34:47.207Z,6.92
2019-04-03T09:37:18.193Z,5.53
2019-04-03T09:39:48.340Z,6.10
2019-04-03T09:42:17.995Z,5.90
2019-04-03T09:44:47.506Z,6.65
2019-04-03T09:47:19.052Z,5.98
2019-04-03T09:49:49.057Z,5.35
2019-04-03T09:52:18.472Z,3.40
2019-04-03T09:54:48.854Z,1.60
2019-04-03T09:57:18.855Z,1.70
2019-04-03T09:59:48.579Z,1.50
2019-04-03T10:02:20.832Z,1.80
2019-04-03T10:04:50.407Z,1.50
2019-04-03T10:07:19.906Z,1.60
2019-04-03T10:09:53.745Z,1.75
2019-04-03T10:12:23.394Z,1.67
2019-04-03T10:14:59.259Z,1.52
2019-04-03T10:17:28.936Z,1.45
2019-04-03T10:19:58.711Z,1.25
2019-04-03T10:22:31.081Z,1.15
2019-04-03T10:25:02.546Z,1.27
2019-04-03T10:27:31.632Z,1.20
2019-04-03T10:30:02.522Z,1.10
2019-04-03T10:32:32.442Z,1.05
2019-04-03T10:35:04.994Z,0.90
2019-04-03T10:37:34.740Z,0.70
2019-04-03T10:40:06.916Z,0.80
2019-04-03T10:42:36.512Z,0.70
2019-04-03T10:45:12.512Z,0.78
2019-04-03T10:47:44.141Z,0.88
2019-04-03T10:50:17.968Z,0.75
2019-04-03T10:52:48.973Z,0.90
2019-04-03T10:55:20.510Z,0.62
2019-04-03T10:57:50.399Z,0.50
2019-04-03T11:00:22.052Z,0.60
2019-04-03T11:02:54.667Z,0.80
2019-04-03T11:05:24.081Z,0.53
2019-04-03T11:07:53.744Z,0.60
2019-04-03T11:10:24.888Z,1.40
2019-04-03T11:12:54.936Z,1.35
2019-04-03T11:15:24.440Z,2.42
2019-04-03T11:17:53.944Z,1.10
2019-04-03T11:20:26.488Z,0.90
2019-04-03T11:23:05.654Z,0.90
2019-04-03T11:25:27.269Z,0.40
2019-04-03T11:27:57.280Z,0.50
2019-04-03T11:30:27.483Z,0.60
2019-04-03T11:32:57.395Z,0.50
2019-04-03T11:35:30.196Z,0.85
2019-04-03T11:38:12.720Z,0.60
2019-04-03T11:40:36.790Z,0.60
2019-04-03T11:43:06.256Z,0.57
2019-04-03T11:45:35.948Z,0.40
2019-04-03T11:48:05.915Z,0.55
2019-04-03T11:50:35.690Z,0.60
2019-04-03T11:53:08.385Z,0.60
2019-04-03T11:55:41.940Z,0.60
2019-04-03T11:58:10.896Z,0.60
2019-04-03T12:00:46.410Z,0.60
2019-04-03T12:03:17.794Z,0.70
2019-04-03T12:05:49.370Z,0.55
2019-04-03T12:08:19.629Z,0.88
2019-04-03T12:10:50.910Z,0.60
2019-04-03T12:13:21.774Z,0.75
2019-04-03T12:15:53.508Z,0.85
2019-04-03T12:18:22.992Z,1.00
2019-04-03T12:20:52.942Z,1.20
2019-04-03T12:23:22.651Z,1.10
2019-04-03T12:25:52.098Z,0.98
2019-04-03T12:28:21.832Z,1.10
2019-04-03T12:30:51.348Z,1.10
2019-04-03T12:33:21.690Z,1.35
2019-04-03T12:35:51.749Z,1.50
2019-04-03T12:38:23.416Z,1.90
2019-04-03T12:40:53.492Z,1.10
2019-04-03T12:43:23.099Z,1.98
2019-04-03T12:45:52.675Z,1.30
2019-04-03T12:48:22.076Z,1.20
2019-04-03T12:50:51.750Z,1.20
2019-04-03T12:53:22.885Z,1.35
2019-04-03T12:55:54.248Z,1.25
2019-04-03T12:58:25.111Z,1.62
2019-04-03T13:00:54.760Z,1.20
2019-04-03T13:03:26.408Z,1.10
2019-04-03T13:05:55.940Z,1.20
2019-04-03T13:08:26.248Z,0.75
2019-04-03T13:10:58.154Z,0.70
2019-04-03T13:13:30.715Z,1.20
2019-04-03T13:16:01.610Z,1.20
2019-04-03T13:18:31.469Z,1.35
2019-04-03T13:21:01.190Z,1.60
2019-04-03T13:23:30.756Z,1.60
2019-04-03T13:26:00.277Z,1.62
2019-04-03T13:28:29.879Z,1.70
2019-04-03T13:31:01.177Z,1.55
2019-04-03T13:33:30.763Z,1.80
2019-04-03T13:36:02.383Z,1.45
2019-04-03T13:38:31.889Z,1.40
2019-04-03T13:41:04.632Z,1.35
2019-04-03T13:43:34.113Z,1.10
2019-04-03T13:46:04.617Z,1.35
2019-04-03T13:48:36.193Z,1.50
2019-04-03T13:51:06.311Z,1.52
2019-04-03T13:53:35.993Z,1.70
2019-04-03T13:56:06.647Z,1.55
2019-04-03T13:58:37.254Z,1.57
2019-04-03T14:01:09.245Z,1.35
2019-04-03T14:03:39.378Z,1.62
2019-04-03T14:06:08.939Z,1.60
2019-04-03T14:08:40.009Z,1.80
2019-04-03T14:11:09.694Z,1.87
2019-04-03T14:13:39.248Z,1.72
2019-04-03T14:16:18.963Z,2.60
2019-04-03T14:18:41.302Z,1.70
2019-04-03T14:21:11.230Z,1.70
2019-04-03T14:23:41.170Z,1.67
2019-04-03T14:26:13.822Z,1.90
2019-04-03T14:28:43.476Z,2.07
2019-04-03T14:31:13.021Z,1.85
2019-04-03T14:33:46.253Z,2.10
2019-04-03T14:36:19.192Z,1.87
2019-04-03T14:38:50.664Z,2.12
2019-04-03T14:41:19.363Z,2.27
2019-04-03T14:43:49.350Z,2.27
2019-04-03T14:46:19.182Z,2.70
2019-04-03T14:48:50.526Z,2.40
2019-04-03T14:51:21.711Z,3.52
2019-04-03T14:53:53.410Z,3.08
2019-04-03T14:56:23.129Z,3.30
2019-04-03T14:58:52.617Z,3.10
2019-04-03T15:01:22.003Z,3.10
2019-04-03T15:03:51.379Z,3.42
2019-04-03T15:06:22.362Z,3.10
2019-04-03T15:08:54.686Z,3.85
2019-04-03T15:11:23.376Z,3.33
2019-04-03T15:13:52.973Z,2.87
2019-04-03T15:16:24.581Z,3.83
2019-04-03T15:18:53.980Z,4.50
2019-04-03T15:21:24.803Z,3.65
2019-04-03T15:23:56.538Z,3.92
2019-04-03T15:26:27.398Z,3.50
2019-04-03T15:28:56.951Z,3.75
2019-04-03T15:31:26.613Z,4.60
2019-04-03T15:33:56.637Z,3.70
2019-04-03T15:36:30.750Z,4.10
2019-04-03T15:39:02.368Z,5.10
2019-04-03T15:41:34.843Z,4.65
2019-04-03T15:44:04.914Z,4.70
2019-04-03T15:46:34.470Z,4.85
2019-04-03T15:49:05.584Z,4.45
2019-04-03T15:51:38.839Z,5.17
2019-04-03T15:54:08.100Z,4.70
2019-04-03T15:56:39.289Z,4.75
2019-04-03T15:59:10.916Z,4.53
2019-04-03T16:01:42.218Z,6.30
2019-04-03T16:04:12.706Z,5.42
2019-04-03T16:06:42.706Z,5.20
2019-04-03T16:09:17.192Z,4.85
2019-04-03T16:11:48.168Z,5.60
2019-04-03T16:14:19.867Z,5.22
2019-04-03T16:16:49.206Z,4.90
2019-04-03T16:19:18.746Z,5.53
2019-04-03T16:21:48.659Z,4.80
2019-04-03T16:24:19.970Z,6.12
2019-04-03T16:26:49.803Z,3.10
2019-04-03T16:29:19.679Z,2.75
2019-04-03T16:31:49.756Z,2.72
2019-04-03T16:34:20.798Z,2.70
2019-04-03T16:36:50.795Z,2.30
2019-04-03T16:39:21.027Z,2.20
2019-04-03T16:41:50.937Z,2.52
2019-04-03T16:44:20.536Z,2.72
2019-04-03T16:46:50.120Z,2.92
2019-04-03T16:49:20.350Z,2.47
2019-04-03T16:51:52.462Z,2.27
2019-04-03T16:54:22.387Z,1.70
2019-04-03T16:56:51.838Z,1.90
2019-04-03T16:59:24.157Z,1.60
2019-04-03T17:01:55.599Z,2.20
2019-04-03T17:04:28.023Z,2.70
2019-04-03T17:06:58.783Z,2.02
2019-04-03T17:09:32.074Z,2.20
2019-04-03T17:12:00.788Z,2.45
2019-04-03T17:14:33.134Z,3.20
2019-04-03T17:17:01.980Z,6.85
2019-04-03T17:19:31.904Z,3.95
2019-04-03T17:22:01.906Z,5.03
2019-04-03T17:24:40.975Z,3.87
2019-04-03T17:27:02.610Z,21.87
2019-04-03T17:29:32.551Z,3.35
2019-04-03T17:32:07.809Z,3.37
2019-04-03T17:34:37.550Z,2.70
2019-04-03T17:37:06.656Z,3.10
2019-04-03T17:39:36.258Z,2.72
2019-04-03T17:42:06.780Z,3.67
2019-04-03T17:44:38.336Z,4.25
2019-04-03T17:47:09.659Z,4.60
2019-04-03T17:49:42.868Z,3.20
2019-04-03T17:52:13.906Z,4.33
2019-04-03T17:54:43.296Z,2.70
2019-04-03T17:57:17.509Z,3.42
2019-04-03T17:59:49.463Z,3.60
2019-04-03T18:02:20.238Z,3.17
2019-04-03T18:04:51.622Z,3.90
2019-04-03T18:07:21.165Z,2.80
2019-04-03T18:09:50.948Z,2.55
2019-04-03T18:12:21.896Z,2.45
2019-04-03T18:14:51.552Z,2.37
2019-04-03T18:17:21.065Z,1.55
2019-04-03T18:19:50.552Z,2.00
2019-04-03T18:22:20.821Z,1.90
2019-04-03T18:24:51.895Z,2.75
2019-04-03T18:27:22.112Z,2.98
2019-04-03T18:29:51.659Z,2.10
2019-04-03T18:32:21.152Z,3.35
2019-04-03T18:34:54.832Z,2.95
2019-04-03T18:37:21.966Z,3.10
2019-04-03T18:39:53.151Z,5.50
2019-04-03T18:42:22.628Z,3.90
2019-04-03T18:44:52.072Z,4.17
2019-04-03T18:47:23.133Z,4.08
2019-04-03T18:49:55.722Z,3.60
2019-04-03T18:52:31.415Z,3.70
2019-04-03T18:55:04.093Z,3.75
2019-04-03T18:57:35.131Z,2.75
2019-04-03T19:00:07.680Z,2.55
2019-04-03T19:02:37.778Z,2.92
2019-04-03T19:05:13.801Z,5.05
2019-04-03T19:07:45.948Z,2.77
2019-04-03T19:10:18.490Z,5.30
2019-04-03T19:12:46.497Z,9.35
2019-04-03T19:15:16.535Z,2.75
2019-04-03T19:17:45.913Z,4.40
2019-04-03T19:20:16.762Z,3.70
2019-04-03T19:22:47.874Z,3.85
2019-04-03T19:25:20.038Z,3.55
2019-04-03T19:27:49.868Z,4.80
2019-04-03T19:30:21.012Z,3.55
2019-04-03T19:32:51.831Z,2.70
2019-04-03T19:35:21.255Z,2.40
2019-04-03T19:37:51.032Z,1.65
2019-04-03T19:40:23.768Z,1.12
2019-04-03T19:42:54.599Z,1.50
2019-04-03T19:45:25.820Z,1.10
2019-04-03T19:47:57.845Z,1.20
2019-04-03T19:50:31.796Z,1.15
2019-04-03T19:53:08.282Z,1.27
2019-04-03T19:55:39.300Z,1.40
2019-04-03T19:58:08.807Z,1.30
2019-04-03T20:00:38.241Z,1.27
2019-04-03T20:03:14.102Z,1.70
2019-04-03T20:05:44.191Z,1.50
2019-04-03T20:08:18.657Z,1.90
2019-04-03T20:10:49.168Z,1.42
2019-04-03T20:13:19.039Z,1.60
2019-04-03T20:15:53.590Z,1.70
2019-04-03T20:18:21.502Z,1.40
2019-04-03T20:20:50.950Z,1.50
2019-04-03T20:23:24.040Z,1.75
2019-04-03T20:25:53.276Z,2.42
2019-04-03T20:28:24.533Z,1.50
2019-04-03T20:30:54.649Z,2.33
2019-04-03T20:33:24.085Z,2.15
2019-04-03T20:35:56.866Z,1.50
2019-04-03T20:38:27.439Z,1.90
2019-04-03T20:40:58.396Z,1.65
2019-04-03T20:43:27.835Z,1.80
2019-04-03T20:45:59.800Z,1.40
2019-04-03T20:48:29.305Z,1.80
2019-04-03T20:50:59.290Z,1.10
2019-04-03T20:53:28.748Z,1.27
2019-04-03T20:55:59.855Z,1.50
2019-04-03T20:58:29.368Z,1.45
2019-04-03T21:01:06.870Z,1.20
2019-04-03T21:03:30.185Z,1.70
2019-04-03T21:06:01.771Z,1.32
2019-04-03T21:08:33.018Z,1.27
2019-04-03T21:11:02.816Z,1.45
2019-04-03T21:13:32.458Z,1.27
2019-04-03T21:16:02.037Z,1.35
2019-04-03T21:18:32.058Z,1.52
2019-04-03T21:21:02.996Z,1.75
2019-04-03T21:23:36.532Z,1.92
2019-04-03T21:26:07.340Z,1.67
2019-04-03T21:28:37.419Z,2.02
2019-04-03T21:31:07.022Z,2.00
2019-04-03T21:33:36.622Z,2.40
2019-04-03T21:36:07.823Z,1.72
2019-04-03T21:38:37.412Z,2.12
2019-04-03T21:41:07.428Z,1.85
2019-04-03T21:43:37.358Z,1.57
2019-04-03T21:46:09.499Z,1.72
2019-04-03T21:48:39.217Z,1.80
2019-04-03T21:51:10.312Z,2.08
2019-04-03T21:53:40.711Z,2.12
2019-04-03T21:56:10.192Z,2.83
2019-04-03T21:58:39.734Z,2.52
2019-04-03T22:01:20.871Z,1.90
2019-04-03T22:03:51.925Z,2.80
2019-04-03T22:06:21.532Z,2.85
2019-04-03T22:08:55.073Z,2.80
2019-04-03T22:11:24.724Z,3.05
2019-04-03T22:13:54.343Z,3.30
2019-04-03T22:16:23.733Z,3.50
2019-04-03T22:18:57.390Z,3.77
2019-04-03T22:21:26.846Z,2.98
2019-04-03T22:23:56.366Z,3.87
2019-04-03T22:26:25.744Z,3.55
2019-04-03T22:28:57.705Z,4.17
2019-04-03T22:31:29.247Z,3.40
2019-04-03T22:33:58.930Z,3.95
2019-04-03T22:36:28.933Z,4.97
2019-04-03T22:38:58.452Z,5.20
2019-04-03T22:41:27.979Z,4.95
2019-04-03T22:43:57.436Z,5.87
2019-04-03T22:46:26.878Z,5.17
2019-04-03T22:49:00.073Z,6.03
2019-04-03T22:51:30.207Z,7.25
2019-04-03T22:53:59.713Z,6.05
2019-04-03T22:56:29.727Z,5.83
2019-04-03T22:58:59.202Z,6.12
2019-04-03T23:01:29.902Z,5.75
2019-04-03T23:03:59.849Z,5.80
2019-04-03T23:06:29.486Z,4.15
2019-04-03T23:09:00.955Z,3.65
2019-04-03T23:11:31.979Z,3.30
2019-04-03T23:14:01.562Z,3.50
2019-04-03T23:16:31.566Z,3.62
2019-04-03T23:19:01.570Z,3.70
2019-04-03T23:21:31.092Z,3.40
2019-04-03T23:24:00.696Z,2.87
2019-04-03T23:26:32.817Z,2.85
2019-04-03T23:29:03.121Z,3.33
2019-04-03T23:31:33.642Z,3.33
2019-04-03T23:34:03.146Z,3.40
2019-04-03T23:36:32.755Z,3.20
2019-04-03T23:39:04.285Z,3.72
2019-04-03T23:41:36.359Z,4.20
2019-04-03T23:44:04.707Z,3.83
2019-04-03T23:46:34.163Z,4.20
2019-04-03T23:49:03.832Z,4.40
2019-04-03T23:51:33.588Z,4.40
2019-04-03T23:54:03.356Z,4.50
2019-04-03T23:56:32.884Z,5.58
2019-04-03T23:59:03.990Z,5.00
